Portada
METAR-TAF:

METAR-TAF

Aeroports :

La Paz, Bolívia

latitud: 16-31S, longitud: 068-11W, altitud: 4058 m

Observació

L'informe es va fer fa 56 minuts, a les 10:00 UTC
Vent 5 kt del Nord
Temperatura 0°C
Humitat 24%
Pressió 1041 hPa
Visibilitat 10 km o més

METAR: SLLP 251000Z 01005KT 9999 NSC 00/M18 Q1041

Hora: 06:56 (10:56 UTC)

Pronòstic

L'informe es va fer fa 6 hores i 56 minuts, a les 04:00 UTC
Pronòstic vàlid del 25 a les 06 UTC al 26 a les 06 UTC
Vent 5 kt del Nord-Est
Visibilitat 10 km o més
Evolucionant progressivament
l' 25 a les 15 UTC al 25 a les 17 UTC
Vent 10 kt del Sud/Sud-Est
Evolucionant progressivament
l' 25 a les 19 UTC al 25 a les 23 UTC
Vent 5 kt del Est/Nord-Est
Escasses núvols a una alçada de 2300 ft

TAF: SLLP 250400Z 2506/2606 04005KT 9999 NSC TX16/2520Z TNM03/2510Z BECMG 2515/2517 15010KT BECMG 2519/2523 07005KT FEW023

Observacions i pronòstics meteorològics de més de 4000 aeroports (METAR i TAF).

Les estacions disponibles són els punts grocs i vermells al mapa.

Posi el ratolí al punt desitjat per veure el nom de l'estació.

Feu clic per veure les observacions i els pronòstics meteorològics.

Per canviar el mapa: feu clic els botons verds amb una creu de color negre per apropar; al botó verd amb un guió per allunyar la imatge; o en les fletxes verdes per a mapes adjacents.


METAR-TAF: